createdAt,value
2023-01-15T00:00:02.110Z,-1.12
2023-01-15T00:02:32.036Z,-1.09
2023-01-15T00:05:03.157Z,-1.11
2023-01-15T00:07:31.621Z,-1.16
2023-01-15T00:10:01.004Z,-1.11
2023-01-15T00:12:29.078Z,-1.16
2023-01-15T00:14:58.378Z,-1.26
2023-01-15T00:17:26.650Z,-1.25
2023-01-15T00:19:54.836Z,-1.21
2023-01-15T00:22:22.920Z,-1.27
2023-01-15T00:25:08.575Z,-1.33
2023-01-15T00:27:40.746Z,-1.24
2023-01-15T00:30:09.645Z,-1.25
2023-01-15T00:32:37.762Z,-1.24
2023-01-15T00:35:05.972Z,-1.28
2023-01-15T00:37:33.929Z,-1.21
2023-01-15T00:40:01.893Z,-1.31
2023-01-15T00:42:30.526Z,-1.31
2023-01-15T00:45:05.901Z,-1.38
2023-01-15T00:47:34.776Z,-1.33
2023-01-15T00:50:02.648Z,-1.26
2023-01-15T00:52:31.250Z,-1.26
2023-01-15T00:54:59.247Z,-1.25
2023-01-15T00:57:27.366Z,-1.26
2023-01-15T00:59:55.349Z,-1.28
2023-01-15T01:02:24.783Z,-1.23
2023-01-15T01:04:53.094Z,-1.24
2023-01-15T01:07:21.019Z,-1.24
2023-01-15T01:09:49.928Z,-1.26
2023-01-15T01:12:17.897Z,-1.21
2023-01-15T01:14:45.881Z,-1.29
2023-01-15T01:17:13.863Z,-1.27
2023-01-15T01:19:43.197Z,-1.16
2023-01-15T01:22:11.149Z,-1.19
2023-01-15T01:24:39.093Z,-1.20
2023-01-15T01:27:07.152Z,-1.19
2023-01-15T01:29:35.118Z,-1.23
2023-01-15T01:32:03.135Z,-1.18
2023-01-15T01:34:31.451Z,-1.25
2023-01-15T01:37:00.836Z,-1.27
2023-01-15T01:39:28.793Z,-1.29
2023-01-15T01:41:56.957Z,-1.24
2023-01-15T01:44:50.045Z,-1.25
2023-01-15T01:47:22.974Z,-1.25
2023-01-15T01:49:52.740Z,-1.30
2023-01-15T01:52:24.654Z,-1.40
2023-01-15T01:54:52.840Z,-1.29
2023-01-15T01:57:21.360Z,-1.27
2023-01-15T01:59:49.780Z,-1.19
2023-01-15T02:02:18.819Z,-1.21
2023-01-15T02:04:47.078Z,-1.28
2023-01-15T02:07:15.118Z,-1.27
2023-01-15T02:09:44.533Z,-1.26
2023-01-15T02:12:15.634Z,-1.27
2023-01-15T02:14:48.602Z,-1.22
2023-01-15T02:17:19.531Z,-1.25
2023-01-15T02:19:53.127Z,-1.22
2023-01-15T02:22:26.291Z,-1.21
2023-01-15T02:25:02.005Z,-1.23
2023-01-15T02:27:32.710Z,-1.26
2023-01-15T02:32:54.585Z,-1.23
2023-01-15T02:35:25.369Z,-1.26
2023-01-15T02:37:55.171Z,-1.23
2023-01-15T02:40:24.166Z,-1.23
2023-01-15T02:42:55.019Z,-1.24
2023-01-15T02:45:27.280Z,-1.24
2023-01-15T02:47:57.917Z,-1.25
2023-01-15T02:50:27.990Z,-1.28
2023-01-15T02:52:59.793Z,-1.24
2023-01-15T02:55:29.033Z,-1.28
2023-01-15T02:58:00.391Z,-1.26
2023-01-15T03:00:31.329Z,-1.25
2023-01-15T03:03:02.466Z,-1.23
2023-01-15T03:05:32.896Z,-1.23
2023-01-15T03:08:02.406Z,-1.24
2023-01-15T03:10:34.259Z,-1.20
2023-01-15T03:13:04.383Z,-1.23
2023-01-15T03:15:54.719Z,-1.19
2023-01-15T03:18:23.138Z,-1.28
2023-01-15T03:20:53.612Z,-1.26
2023-01-15T03:23:24.993Z,-1.32
2023-01-15T03:25:53.060Z,-1.31
2023-01-15T03:28:24.926Z,-1.24
2023-01-15T03:30:53.232Z,-1.15
2023-01-15T03:33:21.500Z,-1.14
2023-01-15T03:35:52.902Z,-1.14
2023-01-15T03:38:22.684Z,-1.13
2023-01-15T03:40:54.387Z,-1.14
2023-01-15T03:43:43.195Z,-1.13
2023-01-15T03:46:16.815Z,-1.10
2023-01-15T03:48:50.621Z,-1.07
2023-01-15T03:51:21.531Z,-1.07
2023-01-15T03:53:50.894Z,-1.07
2023-01-15T03:56:23.380Z,-1.07
2023-01-15T03:58:54.985Z,-1.10
2023-01-15T04:01:26.048Z,-1.12
2023-01-15T04:03:54.812Z,-1.18
2023-01-15T04:06:23.240Z,-1.15
2023-01-15T04:08:51.160Z,-1.26
2023-01-15T04:11:23.780Z,-1.27
2023-01-15T04:13:54.478Z,-1.27
2023-01-15T04:16:25.823Z,-1.26
2023-01-15T04:18:54.012Z,-1.28
2023-01-15T04:21:22.115Z,-1.28
2023-01-15T04:23:50.219Z,-1.33
2023-01-15T04:26:18.635Z,-1.26
2023-01-15T04:28:46.888Z,-1.26
2023-01-15T04:31:16.860Z,-1.26
2023-01-15T04:33:44.813Z,-1.28
2023-01-15T04:36:14.756Z,-1.30
2023-01-15T04:38:42.743Z,-1.29
2023-01-15T04:41:28.740Z,-1.23
2023-01-15T04:44:09.051Z,-1.27
2023-01-15T04:46:40.099Z,-1.42
2023-01-15T04:49:10.100Z,-1.28
2023-01-15T04:51:39.655Z,-1.27
2023-01-15T04:54:07.833Z,-1.29
2023-01-15T04:56:41.896Z,-1.27
2023-01-15T04:59:10.187Z,-1.28
2023-01-15T05:01:40.540Z,-1.30
2023-01-15T05:04:11.086Z,-1.30
2023-01-15T05:06:39.257Z,-1.26
2023-01-15T05:09:07.485Z,-1.34
2023-01-15T05:11:36.239Z,-1.34
2023-01-15T05:14:04.481Z,-1.49
2023-01-15T05:16:32.827Z,-1.42
2023-01-15T05:19:03.307Z,-1.51
2023-01-15T05:21:32.925Z,-1.52
2023-01-15T05:24:02.071Z,-1.45
2023-01-15T05:26:31.438Z,-1.41
2023-01-15T05:29:00.385Z,-1.43
2023-01-15T05:31:29.448Z,-1.44
2023-01-15T05:33:57.886Z,-1.45
2023-01-15T05:36:29.179Z,-1.38
2023-01-15T05:38:59.892Z,-1.36
2023-01-15T05:41:45.355Z,-1.38
2023-01-15T05:44:13.907Z,-1.40
2023-01-15T05:46:42.831Z,-1.36
2023-01-15T05:49:11.900Z,-1.40
2023-01-15T05:51:41.650Z,-1.42
2023-01-15T05:54:10.707Z,-1.41
2023-01-15T05:56:39.407Z,-1.36
2023-01-15T05:59:08.291Z,-1.40
2023-01-15T06:01:36.707Z,-1.35
2023-01-15T06:04:05.822Z,-1.41
2023-01-15T06:09:25.325Z,-1.30
2023-01-15T06:11:54.301Z,-1.34
2023-01-15T06:14:22.901Z,-1.32
2023-01-15T06:16:50.918Z,-1.31
2023-01-15T06:19:19.093Z,-1.28
2023-01-15T06:21:47.246Z,-1.22
2023-01-15T06:24:16.949Z,-1.13
2023-01-15T06:26:46.283Z,-1.17
2023-01-15T06:29:18.906Z,-1.15
2023-01-15T06:31:47.538Z,-1.13
2023-01-15T06:34:15.805Z,-1.12
2023-01-15T06:36:43.718Z,-1.15
2023-01-15T06:39:11.833Z,-1.13
2023-01-15T06:41:57.625Z,-1.16
2023-01-15T06:44:44.607Z,-1.16
2023-01-15T06:47:24.267Z,-1.12
2023-01-15T06:49:54.348Z,-1.09
2023-01-15T06:52:22.491Z,-1.06
2023-01-15T06:54:50.753Z,-1.08
2023-01-15T06:57:20.077Z,-1.09
2023-01-15T06:59:49.960Z,-1.13
2023-01-15T07:02:18.690Z,-1.06
2023-01-15T07:04:46.981Z,-1.08
2023-01-15T07:07:15.588Z,-1.05
2023-01-15T07:09:43.557Z,-1.08
2023-01-15T07:12:12.145Z,-1.01
2023-01-15T07:14:40.062Z,-0.97
2023-01-15T07:17:09.734Z,-0.96
2023-01-15T07:19:37.962Z,-0.98
2023-01-15T07:22:06.165Z,-0.97
2023-01-15T07:24:34.497Z,-0.96
2023-01-15T07:27:02.739Z,-0.90
2023-01-15T07:29:31.692Z,-1.01
2023-01-15T07:32:00.122Z,-1.00
2023-01-15T07:34:29.797Z,-0.98
2023-01-15T07:36:58.122Z,-0.90
2023-01-15T07:39:26.086Z,-0.89
2023-01-15T07:42:11.481Z,-0.85
2023-01-15T07:44:57.660Z,-0.82
2023-01-15T07:47:43.797Z,-0.79
2023-01-15T07:50:14.027Z,-0.75
2023-01-15T07:52:41.989Z,-0.72
2023-01-15T07:55:10.411Z,-0.67
2023-01-15T07:57:38.622Z,-0.59
2023-01-15T08:00:07.234Z,-0.58
2023-01-15T08:02:35.684Z,-0.61
2023-01-15T08:05:03.766Z,-0.63
2023-01-15T08:07:37.650Z,-0.65
2023-01-15T08:10:06.005Z,-0.62
2023-01-15T08:12:51.444Z,-0.54
2023-01-15T08:15:19.567Z,-0.56
2023-01-15T08:17:48.122Z,-0.56
2023-01-15T08:20:17.216Z,-0.58
2023-01-15T08:22:47.363Z,-0.48
2023-01-15T08:25:16.087Z,-0.43
2023-01-15T08:27:44.428Z,-0.53
2023-01-15T08:30:14.635Z,-0.49
2023-01-15T08:32:42.650Z,-0.54
2023-01-15T08:35:10.889Z,-0.56
2023-01-15T08:37:38.941Z,-0.51
2023-01-15T08:40:09.042Z,-0.45
2023-01-15T08:42:37.242Z,-0.37
2023-01-15T08:45:05.694Z,-0.38
2023-01-15T08:47:33.941Z,-0.29
2023-01-15T08:50:01.947Z,-0.28
2023-01-15T08:52:30.587Z,-0.21
2023-01-15T08:54:58.789Z,-0.39
2023-01-15T08:57:28.271Z,-0.32
2023-01-15T08:59:56.137Z,-0.35
2023-01-15T09:02:24.070Z,-0.23
2023-01-15T09:04:52.846Z,-0.17
2023-01-15T09:07:21.066Z,-0.17
2023-01-15T09:09:52.683Z,-0.21
2023-01-15T09:12:24.884Z,-0.35
2023-01-15T09:15:00.551Z,-0.36
2023-01-15T09:17:32.842Z,-0.36
2023-01-15T09:20:00.984Z,-0.28
2023-01-15T09:22:31.152Z,-0.25
2023-01-15T09:24:59.414Z,-0.19
2023-01-15T09:27:27.628Z,-0.20
2023-01-15T09:29:57.537Z,-0.14
2023-01-15T09:32:26.019Z,-0.24
2023-01-15T09:34:54.290Z,-0.33
2023-01-15T09:37:22.312Z,-0.26
2023-01-15T09:39:50.793Z,-0.19
2023-01-15T09:42:30.889Z,-0.18
2023-01-15T09:45:15.280Z,-0.20
2023-01-15T09:47:50.185Z,-0.16
2023-01-15T09:50:22.440Z,-0.10
2023-01-15T09:53:11.050Z,-0.09
2023-01-15T09:55:44.321Z,-0.04
2023-01-15T09:58:13.488Z,0.01
2023-01-15T10:00:45.295Z,-0.03
2023-01-15T10:03:19.372Z,0.09
2023-01-15T10:05:50.029Z,0.07
2023-01-15T10:08:21.661Z,0.06
2023-01-15T10:10:52.597Z,0.02
2023-01-15T10:13:23.157Z,-0.04
2023-01-15T10:15:52.761Z,-0.12
2023-01-15T10:18:21.600Z,-0.08
2023-01-15T10:20:59.965Z,-0.02
2023-01-15T10:23:36.356Z,0.11
2023-01-15T10:26:08.417Z,0.14
2023-01-15T10:28:47.467Z,0.22
2023-01-15T10:31:20.545Z,0.25
2023-01-15T10:33:56.672Z,0.19
2023-01-15T10:36:29.597Z,0.25
2023-01-15T10:39:02.167Z,0.29
2023-01-15T10:41:45.544Z,0.32
2023-01-15T10:44:17.863Z,0.29
2023-01-15T10:46:53.239Z,0.38
2023-01-15T10:49:22.435Z,0.35
2023-01-15T10:51:54.056Z,0.33
2023-01-15T10:54:26.434Z,0.34
2023-01-15T10:57:02.293Z,0.43
2023-01-15T10:59:38.189Z,0.45
2023-01-15T11:02:16.671Z,0.46
2023-01-15T11:04:45.716Z,0.42
2023-01-15T11:07:14.286Z,0.42
2023-01-15T11:09:42.734Z,0.44
2023-01-15T11:12:36.146Z,0.46
2023-01-15T11:15:31.734Z,0.42
2023-01-15T11:18:20.717Z,0.38
2023-01-15T11:20:50.486Z,0.47
2023-01-15T11:23:19.859Z,0.37
2023-01-15T11:25:52.576Z,0.14
2023-01-15T11:28:32.062Z,0.26
2023-01-15T11:31:00.705Z,0.34
2023-01-15T11:33:32.266Z,0.33
2023-01-15T11:36:01.251Z,0.32
2023-01-15T11:38:30.273Z,0.24
2023-01-15T11:40:59.872Z,0.22
2023-01-15T11:43:46.874Z,0.21
2023-01-15T11:46:41.957Z,0.13
2023-01-15T11:49:29.593Z,0.02
2023-01-15T11:51:59.522Z,-0.05
2023-01-15T11:54:28.306Z,-0.08
2023-01-15T11:56:56.869Z,-0.12
2023-01-15T11:59:24.876Z,-0.12
2023-01-15T12:02:00.104Z,-0.05
2023-01-15T12:04:40.130Z,0.07
2023-01-15T12:07:13.323Z,0.08
2023-01-15T12:09:50.316Z,0.08
2023-01-15T12:12:23.388Z,0.12
2023-01-15T12:15:01.725Z,0.14
2023-01-15T12:17:37.795Z,0.04
2023-01-15T12:20:13.665Z,0.02
2023-01-15T12:22:47.708Z,0.04
2023-01-15T12:25:20.943Z,0.07
2023-01-15T12:27:54.365Z,-0.02
2023-01-15T12:30:25.228Z,0.04
2023-01-15T12:32:56.103Z,-0.03
2023-01-15T12:35:29.451Z,0.06
2023-01-15T12:37:59.951Z,0.05
2023-01-15T12:40:31.647Z,0.03
2023-01-15T12:43:17.653Z,0.07
2023-01-15T12:45:48.347Z,-0.04
2023-01-15T12:48:21.051Z,-0.24
2023-01-15T12:50:52.135Z,-0.18
2023-01-15T12:53:22.232Z,-0.13
2023-01-15T12:55:53.565Z,-0.08
2023-01-15T12:58:35.819Z,-0.08
2023-01-15T13:01:07.315Z,-0.16
2023-01-15T13:03:43.052Z,-0.30
2023-01-15T13:06:14.537Z,-0.25
2023-01-15T13:08:47.835Z,-0.26
2023-01-15T13:11:15.784Z,-0.23
2023-01-15T13:13:58.216Z,-0.27
2023-01-15T13:19:32.399Z,-0.46
2023-01-15T13:22:04.883Z,-0.50
2023-01-15T13:24:59.743Z,-0.53
2023-01-15T13:27:32.556Z,-0.51
2023-01-15T13:30:08.343Z,-0.56
2023-01-15T13:32:42.491Z,-0.52
2023-01-15T13:35:13.833Z,-0.53
2023-01-15T13:37:45.817Z,-0.53
2023-01-15T13:40:18.506Z,-0.48
2023-01-15T13:42:48.083Z,-0.51
2023-01-15T13:45:28.073Z,-0.60
2023-01-15T13:47:58.113Z,-0.62
2023-01-15T13:50:30.159Z,-0.69
2023-01-15T13:53:04.176Z,-0.69
2023-01-15T13:55:34.635Z,-0.68
2023-01-15T13:58:03.096Z,-0.64
2023-01-15T14:00:33.254Z,-0.68
2023-01-15T14:03:02.172Z,-0.75
2023-01-15T14:05:32.385Z,-0.73
2023-01-15T14:08:03.286Z,-0.76
2023-01-15T14:10:36.174Z,-0.74
2023-01-15T14:13:15.612Z,-0.77
2023-01-15T14:15:50.029Z,-0.78
2023-01-15T14:18:26.720Z,-0.75
2023-01-15T14:21:12.397Z,-0.75
2023-01-15T14:23:55.319Z,-0.78
2023-01-15T14:26:28.409Z,-0.69
2023-01-15T14:29:03.393Z,-0.74
2023-01-15T14:31:44.436Z,-0.67
2023-01-15T14:34:14.875Z,-0.67
2023-01-15T14:36:48.697Z,-0.68
2023-01-15T14:39:26.628Z,-0.68
2023-01-15T14:42:19.412Z,-0.68
2023-01-15T14:44:48.109Z,-0.76
2023-01-15T14:47:23.169Z,-0.75
2023-01-15T14:50:00.430Z,-0.71
2023-01-15T14:52:28.862Z,-0.75
2023-01-15T14:54:57.016Z,-0.74
2023-01-15T14:57:26.625Z,-0.73
2023-01-15T14:59:56.641Z,-0.76
2023-01-15T15:02:31.700Z,-0.84
2023-01-15T15:05:01.132Z,-0.86
2023-01-15T15:07:32.687Z,-0.93
2023-01-15T15:10:03.321Z,-0.94
2023-01-15T15:12:39.237Z,-0.90
2023-01-15T15:15:12.397Z,-0.90
2023-01-15T15:20:47.745Z,-1.00
2023-01-15T15:23:20.179Z,-1.00
2023-01-15T15:25:55.914Z,-1.00
2023-01-15T15:28:25.368Z,-1.13
2023-01-15T15:30:55.039Z,-1.15
2023-01-15T15:33:24.053Z,-1.11
2023-01-15T15:35:54.155Z,-1.11
2023-01-15T15:38:23.094Z,-1.02
2023-01-15T15:40:53.005Z,-1.04
2023-01-15T15:43:40.783Z,-1.15
2023-01-15T15:46:40.729Z,-1.10
2023-01-15T15:49:10.055Z,-1.12
2023-01-15T15:51:40.172Z,-1.11
2023-01-15T15:54:12.884Z,-1.08
2023-01-15T15:56:42.803Z,-1.08
2023-01-15T15:59:16.677Z,-1.06
2023-01-15T16:01:46.329Z,-1.13
2023-01-15T16:04:17.754Z,-1.17
2023-01-15T16:06:46.553Z,-1.11
2023-01-15T16:09:14.602Z,-1.11
2023-01-15T16:11:42.943Z,-1.15
2023-01-15T16:14:16.025Z,-1.15
2023-01-15T16:16:46.977Z,-1.17
2023-01-15T16:19:17.984Z,-1.14
2023-01-15T16:21:46.579Z,-1.20
2023-01-15T16:24:24.838Z,-1.06
2023-01-15T16:26:57.227Z,-1.11
2023-01-15T16:29:27.628Z,-1.10
2023-01-15T16:31:59.789Z,-1.36
2023-01-15T16:34:29.598Z,-1.14
2023-01-15T16:36:58.043Z,-1.19
2023-01-15T16:39:27.209Z,-1.24
2023-01-15T16:41:57.740Z,-1.28
2023-01-15T16:44:36.479Z,-1.34
2023-01-15T16:47:06.799Z,-1.29
2023-01-15T16:49:35.272Z,-1.34
2023-01-15T16:52:23.523Z,-1.31
2023-01-15T16:54:51.601Z,-1.30
2023-01-15T16:57:32.285Z,-1.41
2023-01-15T17:00:02.341Z,-1.46
2023-01-15T17:02:35.747Z,-1.44
2023-01-15T17:05:15.199Z,-1.38
2023-01-15T17:07:43.332Z,-1.41
2023-01-15T17:10:20.541Z,-1.49
2023-01-15T17:12:48.882Z,-1.52
2023-01-15T17:15:35.565Z,-1.51
2023-01-15T17:18:20.793Z,-1.55
2023-01-15T17:20:48.892Z,-1.49
2023-01-15T17:23:17.160Z,-1.54
2023-01-15T17:25:45.302Z,-1.47
2023-01-15T17:28:13.389Z,-1.51
2023-01-15T17:30:41.480Z,-1.52
2023-01-15T17:33:11.906Z,-1.64
2023-01-15T17:35:41.313Z,-1.64
2023-01-15T17:38:12.336Z,-1.69
2023-01-15T17:40:40.505Z,-1.68
2023-01-15T17:43:09.331Z,-1.79
2023-01-15T17:45:37.276Z,-1.83
2023-01-15T17:48:09.129Z,-1.92
2023-01-15T17:50:40.962Z,-1.93
2023-01-15T17:53:11.082Z,-1.95
2023-01-15T17:55:56.130Z,-1.97
2023-01-15T17:58:37.844Z,-2.01
2023-01-15T18:01:29.598Z,-1.98
2023-01-15T18:04:15.017Z,-1.96
2023-01-15T18:06:48.376Z,-1.92
2023-01-15T18:09:18.163Z,-1.91
2023-01-15T18:11:46.425Z,-1.98
2023-01-15T18:14:14.472Z,-1.95
2023-01-15T18:16:42.439Z,-1.98
2023-01-15T18:19:10.719Z,-1.96
2023-01-15T18:21:40.180Z,-1.97
2023-01-15T18:24:12.117Z,-2.04
2023-01-15T18:26:40.609Z,-2.01
2023-01-15T18:29:09.171Z,-2.05
2023-01-15T18:31:38.295Z,-2.11
2023-01-15T18:34:06.302Z,-2.09
2023-01-15T18:36:34.563Z,-2.10
2023-01-15T18:39:06.453Z,-2.06
2023-01-15T18:41:54.219Z,-2.09
2023-01-15T18:44:40.488Z,-2.06
2023-01-15T18:47:10.164Z,-2.08
2023-01-15T18:49:38.405Z,-2.03
2023-01-15T18:52:24.336Z,-2.00
2023-01-15T18:54:52.371Z,-2.03
2023-01-15T18:57:21.949Z,-2.07
2023-01-15T18:59:50.208Z,-2.14
2023-01-15T19:02:18.719Z,-2.17
2023-01-15T19:04:48.191Z,-2.14
2023-01-15T19:07:16.282Z,-2.19
2023-01-15T19:09:44.371Z,-2.18
2023-01-15T19:12:13.846Z,-2.12
2023-01-15T19:15:00.702Z,-2.15
2023-01-15T19:17:46.231Z,-2.20
2023-01-15T19:20:15.688Z,-2.19
2023-01-15T19:23:05.754Z,-2.19
2023-01-15T19:25:37.422Z,-2.15
2023-01-15T19:28:05.760Z,-2.08
2023-01-15T19:30:35.755Z,-2.12
2023-01-15T19:33:03.766Z,-2.07
2023-01-15T19:35:31.898Z,-2.06
2023-01-15T19:37:59.919Z,-2.07
2023-01-15T19:40:28.051Z,-2.10
2023-01-15T19:43:13.371Z,-2.10
2023-01-15T19:46:07.198Z,-2.12
2023-01-15T19:48:52.583Z,-2.18
2023-01-15T19:51:21.272Z,-2.17
2023-01-15T19:53:49.587Z,-2.17
2023-01-15T19:56:17.508Z,-2.16
2023-01-15T19:58:45.473Z,-2.17
2023-01-15T20:01:18.135Z,-2.23
2023-01-15T20:03:46.748Z,-2.16
2023-01-15T20:06:14.920Z,-2.24
2023-01-15T20:08:42.961Z,-2.23
2023-01-15T20:11:11.052Z,-2.21
2023-01-15T20:13:52.135Z,-2.23
2023-01-15T20:16:22.944Z,-2.22
2023-01-15T20:18:51.593Z,-2.19
2023-01-15T20:21:19.902Z,-2.15
2023-01-15T20:23:47.844Z,-2.11
2023-01-15T20:29:14.862Z,-2.18
2023-01-15T20:31:44.380Z,-2.16
2023-01-15T20:34:12.308Z,-2.15
2023-01-15T20:36:40.438Z,-2.07
2023-01-15T20:39:08.375Z,-2.20
2023-01-15T20:42:02.192Z,-2.19
2023-01-15T20:44:47.205Z,-2.18
2023-01-15T20:47:30.498Z,-2.26
2023-01-15T20:49:58.543Z,-2.22
2023-01-15T20:52:26.856Z,-2.22
2023-01-15T20:54:54.819Z,-2.24
2023-01-15T20:57:22.885Z,-2.19
2023-01-15T20:59:50.953Z,-2.23
2023-01-15T21:02:20.270Z,-2.32
2023-01-15T21:04:48.213Z,-2.31
2023-01-15T21:07:16.143Z,-2.28
2023-01-15T21:09:44.198Z,-2.26
2023-01-15T21:12:12.299Z,-2.26
2023-01-15T21:14:40.311Z,-2.25
2023-01-15T21:17:08.476Z,-2.25
2023-01-15T21:19:37.799Z,-2.27
2023-01-15T21:22:05.759Z,-2.28
2023-01-15T21:24:34.405Z,-2.23
2023-01-15T21:27:02.402Z,-2.28
2023-01-15T21:29:30.567Z,-2.27
2023-01-15T21:31:58.671Z,-2.32
2023-01-15T21:34:26.705Z,-2.23
2023-01-15T21:36:56.098Z,-2.23
2023-01-15T21:39:24.164Z,-2.26
2023-01-15T21:42:09.930Z,-2.32
2023-01-15T21:44:43.490Z,-2.30
2023-01-15T21:47:12.637Z,-2.25
2023-01-15T21:49:40.830Z,-2.27
2023-01-15T21:52:12.727Z,-2.28
2023-01-15T21:54:40.855Z,-2.32
2023-01-15T21:57:09.760Z,-2.33
2023-01-15T21:59:38.161Z,-2.28
2023-01-15T22:02:06.784Z,-2.40
2023-01-15T22:04:36.170Z,-2.36
2023-01-15T22:07:04.156Z,-2.37
2023-01-15T22:09:33.634Z,-2.43
2023-01-15T22:12:01.650Z,-2.43
2023-01-15T22:14:30.551Z,-2.40
2023-01-15T22:16:59.851Z,-2.44
2023-01-15T22:19:28.527Z,-2.43
2023-01-15T22:21:57.529Z,-2.62
2023-01-15T22:24:27.194Z,-2.52
2023-01-15T22:26:57.488Z,-2.48
2023-01-15T22:29:26.523Z,-2.54
2023-01-15T22:31:54.839Z,-2.54
2023-01-15T22:34:23.406Z,-2.50
2023-01-15T22:36:52.357Z,-2.54
2023-01-15T22:39:20.910Z,-2.52
2023-01-15T22:42:06.835Z,-2.59
2023-01-15T22:44:36.519Z,-2.53
2023-01-15T22:47:04.991Z,-2.43
2023-01-15T22:49:33.213Z,-2.41
2023-01-15T22:52:01.676Z,-2.41
2023-01-15T22:54:29.635Z,-2.42
2023-01-15T22:56:57.677Z,-2.38
2023-01-15T22:59:25.573Z,-2.41
2023-01-15T23:01:55.042Z,-2.48
2023-01-15T23:04:23.994Z,-2.43
2023-01-15T23:06:52.577Z,-2.36
2023-01-15T23:09:21.063Z,-2.49
2023-01-15T23:11:51.373Z,-2.37
2023-01-15T23:14:22.618Z,-2.37
2023-01-15T23:16:50.718Z,-2.48
2023-01-15T23:19:22.429Z,-2.36
2023-01-15T23:21:50.497Z,-2.33
2023-01-15T23:24:18.663Z,-2.32
2023-01-15T23:26:46.665Z,-2.32
2023-01-15T23:29:14.724Z,-2.43
2023-01-15T23:31:42.832Z,-2.37
2023-01-15T23:34:11.535Z,-2.45
2023-01-15T23:36:41.149Z,-2.42
2023-01-15T23:39:11.686Z,-2.47
2023-01-15T23:41:56.940Z,-2.38
2023-01-15T23:44:41.809Z,-2.37
2023-01-15T23:47:10.210Z,-2.41
2023-01-15T23:49:38.484Z,-2.34
2023-01-15T23:52:08.209Z,-2.31
2023-01-15T23:54:36.417Z,-2.36
